Time;durP1;ratioP1;P1;durP2;ratioP2;P2;SDS_P1;SDS_P2;PMS_P1;PMS_P2;Temp;Humidity;BMP_temperature;BMP_pressure;BME280_temperature;BME280_humidity;BME280_pressure;Samples;Min_cycle;Max_cycle;Signal;HPM_P1;HPM_P2
2022/06/27 00:01:06;;;;;;;3.02;2.72;;;;;;;17.88;86.52;99646.61;1770445;80;21582;-72
2022/06/27 00:03:34;;;;;;;3.02;2.67;;;;;;;17.85;86.85;99650.30;1770365;81;20988;-72
2022/06/27 00:06:01;;;;;;;3.37;2.70;;;;;;;17.85;87.17;99638.92;1770319;81;21151;-72
2022/06/27 00:08:28;;;;;;;4.83;2.87;;;;;;;17.82;87.07;99643.92;1770358;80;21026;-72
2022/06/27 00:10:55;;;;;;;3.45;2.30;;;;;;;17.81;87.21;99647.50;1770334;80;20979;-72
2022/06/27 00:13:22;;;;;;;4.45;2.60;;;;;;;17.82;87.25;99641.77;1770288;81;20971;-72
2022/06/27 00:15:50;;;;;;;2.90;2.60;;;;;;;17.83;87.35;99643.45;1770342;80;21014;-73
2022/06/27 00:18:16;;;;;;;2.75;2.55;;;;;;;17.85;87.43;99644.19;1770352;81;21544;-72
2022/06/27 00:20:43;;;;;;;2.65;2.45;;;;;;;17.86;87.47;99650.66;1770257;81;20955;-72
2022/06/27 00:23:11;;;;;;;3.25;2.87;;;;;;;17.87;87.37;99640.51;1770347;80;20994;-72
2022/06/27 00:25:38;;;;;;;3.05;2.58;;;;;;;17.89;87.21;99641.72;1770331;81;20987;-72
2022/06/27 00:28:05;;;;;;;4.15;2.75;;;;;;;17.89;87.02;99639.94;1770388;81;20951;-72
2022/06/27 00:30:32;;;;;;;3.42;2.40;;;;;;;17.90;86.98;99640.77;1770666;81;21123;-72
2022/06/27 00:32:58;;;;;;;4.42;2.77;;;;;;;17.92;86.96;99636.25;1770305;80;21046;-72
2022/06/27 00:35:25;;;;;;;4.40;2.55;;;;;;;17.95;86.85;99643.09;1770361;81;21427;-72
2022/06/27 00:37:52;;;;;;;3.00;2.70;;;;;;;17.97;86.77;99635.94;1770253;80;20987;-73
2022/06/27 00:40:18;;;;;;;3.95;2.62;;;;;;;17.98;86.71;99637.16;1770337;80;21046;-72
2022/06/27 00:42:46;;;;;;;3.55;2.40;;;;;;;17.98;87.02;99638.95;1770309;81;21095;-73
2022/06/27 00:45:13;;;;;;;3.25;2.75;;;;;;;17.97;87.56;99638.58;1770228;81;20991;-72
2022/06/27 00:47:40;;;;;;;5.00;3.00;;;;;;;17.96;88.30;99632.47;1770355;81;20979;-72
2022/06/27 00:50:09;;;;;;;2.77;2.58;;;;;;;17.96;88.76;99634.26;1770352;80;21035;-72
2022/06/27 00:52:35;;;;;;;4.42;2.42;;;;;;;17.97;88.87;99642.52;1770639;80;20946;-72
2022/06/27 00:55:03;;;;;;;2.80;2.45;;;;;;;17.98;88.71;99643.73;1770546;81;21092;-72
2022/06/27 00:57:31;;;;;;;3.62;2.87;;;;;;;17.97;88.99;99640.73;1770218;80;20982;-72
2022/06/27 00:59:57;;;;;;;9.75;2.77;;;;;;;17.98;88.86;99641.10;1770615;80;21038;-72
2022/06/27 01:02:24;;;;;;;2.55;2.35;;;;;;;17.98;88.67;99637.63;1770530;80;21007;-72
2022/06/27 01:04:50;;;;;;;3.47;2.90;;;;;;;17.98;88.42;99635.84;1770341;81;21046;-72
2022/06/27 01:07:17;;;;;;;3.10;2.85;;;;;;;17.99;88.24;99644.55;1770549;81;21818;-72
2022/06/27 01:09:43;;;;;;;3.30;3.00;;;;;;;17.99;88.42;99645.86;1770211;81;20927;-72
2022/06/27 01:12:11;;;;;;;3.42;2.85;;;;;;;17.97;88.33;99640.73;1770378;80;21439;-72
2022/06/27 01:14:38;;;;;;;3.85;3.20;;;;;;;17.97;88.37;99643.84;1770279;81;21471;-72
2022/06/27 01:17:05;;;;;;;3.10;2.80;;;;;;;17.98;88.60;99644.20;1770519;81;21037;-72
2022/06/27 01:19:32;;;;;;;3.45;3.15;;;;;;;17.98;88.27;99650.78;1770255;80;21550;-72
2022/06/27 01:21:58;;;;;;;4.15;2.72;;;;;;;17.98;88.16;99644.20;1770220;81;21057;-72
2022/06/27 01:24:26;;;;;;;3.02;2.62;;;;;;;17.99;88.24;99645.39;1770507;81;21105;-72
2022/06/27 01:26:53;;;;;;;3.42;3.02;;;;;;;18.00;88.22;99640.97;1770273;81;20959;-72
2022/06/27 01:29:20;;;;;;;4.72;3.20;;;;;;;18.01;88.01;99640.02;1770665;81;20998;-72
2022/06/27 01:31:48;;;;;;;3.50;3.20;;;;;;;18.03;88.08;99643.39;1770289;80;21218;-72
2022/06/27 01:34:15;;;;;;;4.78;3.08;;;;;;;18.06;88.19;99643.19;1770295;81;20994;-72
2022/06/27 01:36:44;;;;;;;3.98;3.10;;;;;;;18.08;88.03;99646.55;1770460;80;20959;-73
2022/06/27 01:39:24;;;;;;;3.35;3.05;;;;;;;18.09;87.93;99647.77;1770551;81;20967;-72
2022/06/27 01:41:57;;;;;;;5.30;3.17;;;;;;;18.11;88.17;99642.39;1770650;80;21035;-72
2022/06/27 01:44:26;;;;;;;3.40;2.95;;;;;;;18.12;88.10;99648.03;1770300;81;21187;-73
2022/06/27 01:47:06;;;;;;;4.35;2.98;;;;;;;18.14;88.37;99647.45;1770470;81;20991;-73
2022/06/27 01:49:34;;;;;;;4.85;2.67;;;;;;;18.14;88.37;99647.45;1769395;80;21113;-72
2022/06/27 01:52:02;;;;;;;9.03;4.03;;;;;;;18.12;88.03;99650.19;1770257;81;20987;-72
2022/06/27 01:54:29;;;;;;;3.67;3.08;;;;;;;18.11;87.74;99655.08;1770312;81;21058;-72
2022/06/27 01:56:56;;;;;;;6.25;3.00;;;;;;;18.10;87.63;99655.19;1770532;81;21408;-73
2022/06/27 01:59:27;;;;;;;3.60;2.92;;;;;;;18.08;87.55;99650.50;1770144;81;20935;-72
2022/06/27 02:01:59;;;;;;;4.28;3.02;;;;;;;18.06;87.48;99657.66;1770293;80;21022;-72
2022/06/27 02:04:28;;;;;;;7.92;3.08;;;;;;;18.03;87.30;99657.39;1770246;80;21056;-72
2022/06/27 02:06:54;;;;;;;3.22;2.92;;;;;;;18.03;87.21;99665.28;1770536;81;20883;-73
2022/06/27 02:09:21;;;;;;;4.10;2.58;;;;;;;18.04;87.34;99657.77;1770289;81;21018;-73
2022/06/27 02:11:52;;;;;;;5.00;3.35;;;;;;;18.09;87.39;99664.03;1770156;80;20986;-72
2022/06/27 02:14:20;;;;;;;3.80;3.50;;;;;;;18.14;87.25;99662.77;1770213;80;21050;-72
2022/06/27 02:16:48;;;;;;;6.47;3.20;;;;;;;18.22;86.85;99663.06;1770320;81;21026;-73
2022/06/27 02:19:17;;;;;;;9.28;3.62;;;;;;;18.27;86.73;99668.02;1770227;80;21423;-73
2022/06/27 02:21:44;;;;;;;4.80;3.10;;;;;;;18.34;86.41;99669.28;1770269;81;21763;-72
2022/06/27 02:24:11;;;;;;;3.45;3.12;;;;;;;18.46;86.19;99668.41;1770168;81;20963;-73
2022/06/27 02:26:38;;;;;;;4.67;2.83;;;;;;;18.66;85.67;99671.44;1770288;80;21030;-73
2022/06/27 02:29:04;;;;;;;4.60;2.90;;;;;;;18.85;84.83;99664.73;1770207;81;21569;-72
2022/06/27 02:31:33;;;;;;;3.37;2.80;;;;;;;19.06;83.81;99665.45;1770259;81;20978;-70
2022/06/27 02:34:01;;;;;;;3.65;3.35;;;;;;;19.25;82.62;99667.94;1770334;81;20975;-71
2022/06/27 02:36:36;;;;;;;3.70;3.40;;;;;;;19.43;81.75;99667.04;1770185;80;21034;-71
2022/06/27 02:39:03;;;;;;;3.37;3.08;;;;;;;19.65;80.75;99673.37;1770252;81;20999;-72
2022/06/27 02:41:38;;;;;;;3.75;3.27;;;;;;;19.86;79.69;99668.63;1770324;80;21019;-72
2022/06/27 02:44:10;;;;;;;5.45;3.22;;;;;;;20.09;78.88;99669.98;1770438;81;20931;-72
2022/06/27 02:46:38;;;;;;;5.53;3.77;;;;;;;20.34;77.68;99668.44;1770650;81;21123;-72
2022/06/27 02:49:05;;;;;;;3.12;2.83;;;;;;;20.58;77.39;99671.79;1770172;80;20975;-72
2022/06/27 02:52:16;;;;;;;3.33;3.05;;;;;;;20.88;76.41;99667.66;1770504;80;20942;-73
2022/06/27 02:54:52;;;;;;;4.30;3.50;;;;;;;21.21;74.77;99663.61;1769915;80;21460;-73
2022/06/27 02:57:42;;;;;;;3.75;3.42;;;;;;;21.60;73.29;99674.50;1770505;80;21007;-68
2022/06/27 03:00:11;;;;;;;3.45;3.12;;;;;;;21.86;71.80;99670.98;1770205;81;21770;-68
2022/06/27 03:02:40;;;;;;;3.62;3.00;;;;;;;22.21;70.18;99677.27;1770501;80;21537;-67
2022/06/27 03:05:20;;;;;;;3.45;3.15;;;;;;;22.49;68.76;99677.05;1769847;80;21458;-67
2022/06/27 03:07:48;;;;;;;4.33;2.75;;;;;;;22.77;67.26;99678.98;1770308;80;20963;-67
2022/06/27 03:10:16;;;;;;;3.52;2.90;;;;;;;23.05;66.49;99681.81;1770347;81;20955;-69
2022/06/27 03:12:44;;;;;;;6.45;3.02;;;;;;;23.33;65.04;99675.21;1770208;80;21159;-69
2022/06/27 03:15:11;;;;;;;6.80;3.52;;;;;;;23.53;63.86;99672.58;1770127;81;20918;-70
2022/06/27 03:17:39;;;;;;;3.50;2.80;;;;;;;23.67;62.91;99674.80;1770234;81;20963;-70
2022/06/27 03:20:23;;;;;;;3.85;3.00;;;;;;;23.84;62.20;99673.22;1770373;80;20975;-76
2022/06/27 03:22:55;;;;;;;3.15;2.92;;;;;;;24.08;61.27;99673.59;1768347;80;20947;-76
2022/06/27 03:25:22;;;;;;;3.77;3.15;;;;;;;24.40;60.62;99674.53;1770389;81;21125;-81
2022/06/27 03:27:50;;;;;;;5.85;3.27;;;;;;;24.75;59.56;99668.50;1770713;80;21034;-81
2022/06/27 03:30:16;;;;;;;3.98;3.42;;;;;;;25.10;57.63;99673.55;1770639;80;20949;-81
2022/06/27 03:32:43;;;;;;;4.10;3.12;;;;;;;25.28;56.91;99665.07;1770803;81;21447;-81
2022/06/27 03:35:11;;;;;;;4.40;3.40;;;;;;;25.47;56.54;99662.24;1770413;80;20983;-81
2022/06/27 03:37:38;;;;;;;3.92;3.35;;;;;;;25.63;55.45;99670.88;1770422;81;21755;-81
2022/06/27 03:40:07;;;;;;;3.55;2.95;;;;;;;25.68;55.43;99674.77;1770270;80;20935;-81
2022/06/27 03:42:36;;;;;;;4.40;3.50;;;;;;;25.89;54.98;99682.91;1770481;81;20943;-80
2022/06/27 03:45:03;;;;;;;3.20;2.90;;;;;;;26.11;54.12;99678.88;1770425;81;20938;-81
2022/06/27 03:47:30;;;;;;;4.72;3.25;;;;;;;26.19;53.66;99677.08;1770503;81;21493;-81
2022/06/27 03:50:06;;;;;;;3.85;3.20;;;;;;;26.17;53.47;99670.27;1728070;80;21244;-81
2022/06/27 03:52:34;;;;;;;3.37;3.08;;;;;;;26.17;53.38;99677.77;1770298;81;20943;-81
2022/06/27 03:55:01;;;;;;;5.10;3.65;;;;;;;26.16;53.34;99680.59;1771074;80;21054;-81
2022/06/27 03:57:28;;;;;;;3.47;3.17;;;;;;;26.25;53.38;99678.29;1770414;81;21073;-81
2022/06/27 03:59:54;;;;;;;6.03;3.22;;;;;;;26.22;53.42;99684.77;1770629;81;21450;-81
2022/06/27 04:02:21;;;;;;;3.58;3.27;;;;;;;26.16;53.41;99680.09;1770348;81;21251;-81
2022/06/27 04:04:54;;;;;;;4.17;3.70;;;;;;;26.17;53.75;99681.77;1768652;80;20975;-81
2022/06/27 04:07:21;;;;;;;3.90;3.52;;;;;;;26.33;53.23;99683.21;1770382;81;21062;-82
2022/06/27 04:09:48;;;;;;;4.53;3.15;;;;;;;26.37;53.34;99678.41;1770397;81;21518;-82
2022/06/27 04:12:15;;;;;;;3.30;3.00;;;;;;;26.58;52.55;99688.13;1750827;81;20994;-82
2022/06/27 04:14:43;;;;;;;4.17;3.77;;;;;;;26.62;52.40;99690.83;1767361;81;21145;-83
2022/06/27 04:17:25;;;;;;;3.75;3.00;;;;;;;26.87;51.72;99681.08;1768461;80;21551;-85
2022/06/27 04:19:53;;;;;;;4.17;2.98;;;;;;;27.18;51.07;99681.33;1717458;80;20987;-84
2022/06/27 04:22:22;;;;;;;3.60;3.30;;;;;;;27.38;50.50;99689.37;1769413;80;20975;-84
2022/06/27 04:24:49;;;;;;;3.27;3.00;;;;;;;27.57;49.92;99681.59;1770286;81;21022;-84
2022/06/27 04:27:19;;;;;;;4.00;3.37;;;;;;;27.69;49.52;99684.74;1770103;80;21104;-82
2022/06/27 04:29:49;;;;;;;2.90;2.70;;;;;;;27.65;49.51;99684.23;1770260;81;20992;-83
2022/06/27 04:32:18;;;;;;;3.08;2.83;;;;;;;27.73;49.80;99682.91;1770424;81;20934;-83
2022/06/27 04:34:45;;;;;;;3.22;2.90;;;;;;;28.06;48.92;99677.00;1770209;80;20959;-84
2022/06/27 04:37:12;;;;;;;3.42;3.12;;;;;;;28.29;48.70;99680.32;1750801;81;20963;-83
2022/06/27 04:39:40;;;;;;;4.17;3.00;;;;;;;28.57;47.59;99674.88;1767385;80;21136;-83
2022/06/27 04:42:13;;;;;;;5.65;3.00;;;;;;;28.67;47.20;99672.81;1769073;80;20959;-83
2022/06/27 04:44:43;;;;;;;4.85;3.42;;;;;;;28.80;47.05;99673.10;1770462;81;20982;-83
2022/06/27 04:47:12;;;;;;;3.83;3.37;;;;;;;29.01;46.24;99675.66;1770679;81;21002;-83
2022/06/27 04:49:43;;;;;;;4.03;3.25;;;;;;;29.13;46.03;99671.59;1769460;80;20995;-84
2022/06/27 04:52:12;;;;;;;3.47;3.17;;;;;;;29.32;46.03;99674.30;1770396;81;21119;-83
2022/06/27 04:54:41;;;;;;;4.47;3.50;;;;;;;29.62;45.62;99668.54;1770324;81;21046;-83
2022/06/27 04:57:08;;;;;;;3.25;2.95;;;;;;;29.95;44.73;99676.62;1746608;81;20955;-83
2022/06/27 04:59:37;;;;;;;3.25;3.05;;;;;;;30.24;44.02;99676.33;1739757;81;21096;-84
2022/06/27 05:02:07;;;;;;;4.83;3.00;;;;;;;30.46;42.91;99681.61;1739546;81;20935;-84
2022/06/27 05:04:34;;;;;;;3.65;3.35;;;;;;;30.43;42.88;99683.31;1745580;81;21109;-84
2022/06/27 05:07:01;;;;;;;5.62;3.62;;;;;;;30.43;42.88;99687.85;1763346;80;21554;-84
2022/06/27 05:09:28;;;;;;;3.10;2.90;;;;;;;30.31;42.83;99678.61;1749360;81;20990;-82
2022/06/27 05:11:56;;;;;;;5.25;3.20;;;;;;;30.19;43.20;99681.41;1756491;81;20951;-83
2022/06/27 05:14:24;;;;;;;4.85;3.20;;;;;;;30.06;42.73;99689.60;1769893;81;21561;-82
2022/06/27 05:16:53;;;;;;;3.45;3.15;;;;;;;29.97;43.58;99688.00;1752450;80;21088;-84
2022/06/27 05:19:21;;;;;;;3.80;2.98;;;;;;;30.04;43.01;99686.27;1756517;81;21043;-83
2022/06/27 05:21:49;;;;;;;3.35;3.05;;;;;;;29.98;42.93;99687.50;1739656;81;21008;-84
2022/06/27 05:24:17;;;;;;;4.55;2.87;;;;;;;30.02;43.51;99688.30;1755746;81;21049;-84
2022/06/27 05:26:45;;;;;;;4.67;3.20;;;;;;;30.13;42.85;99687.86;1743437;81;20948;-85
2022/06/27 05:29:12;;;;;;;3.27;3.00;;;;;;;30.12;43.04;99687.54;1770354;80;21110;-85
2022/06/27 05:31:39;;;;;;;5.05;3.27;;;;;;;30.06;43.32;99692.80;1769050;81;21547;-86
2022/06/27 05:34:06;;;;;;;5.78;3.20;;;;;;;30.04;43.11;99685.44;1769539;80;20927;-85
2022/06/27 05:36:34;;;;;;;7.62;2.95;;;;;;;30.11;42.89;99685.87;1770049;81;21124;-86
2022/06/27 05:39:01;;;;;;;4.17;3.12;;;;;;;30.17;42.73;99680.80;1749298;81;21104;-88
2022/06/27 05:41:28;;;;;;;7.30;3.47;;;;;;;30.35;42.59;99680.75;1767426;81;21192;-86
2022/06/27 05:43:59;;;;;;;4.70;2.90;;;;;;;30.52;42.53;99684.58;1766894;80;21768;-85
2022/06/27 05:46:25;;;;;;;3.40;3.20;;;;;;;30.62;41.74;99681.11;1766528;81;21097;-86
2022/06/27 05:48:54;;;;;;;3.50;3.02;;;;;;;30.62;42.21;99684.62;1757474;80;21113;-85
2022/06/27 05:51:30;;;;;;;3.47;3.00;;;;;;;30.62;41.65;99681.11;1760679;80;21030;-87
2022/06/27 05:53:58;;;;;;;4.83;3.02;;;;;;;30.56;42.24;99690.77;1754048;81;21545;-85
2022/06/27 05:56:28;;;;;;;3.42;3.12;;;;;;;30.62;41.57;99685.97;1746307;81;21040;-85
2022/06/27 05:58:55;;;;;;;4.25;3.60;;;;;;;30.53;41.89;99679.53;1737471;82;21903;-85
2022/06/27 06:01:23;;;;;;;6.05;3.37;;;;;;;30.46;42.18;99680.77;1736128;81;21041;-85
2022/06/27 06:03:52;;;;;;;4.15;3.12;;;;;;;30.34;42.62;99685.79;1757102;81;21534;-88
2022/06/27 06:06:20;;;;;;;5.17;2.80;;;;;;;30.32;42.92;99687.82;1760112;81;21083;-89
2022/06/27 06:08:48;;;;;;;4.70;3.20;;;;;;;30.34;42.56;99684.45;1742691;81;20989;-86
2022/06/27 06:11:15;;;;;;;3.10;2.90;;;;;;;30.35;42.77;99686.11;1767008;80;21146;-86
2022/06/27 06:13:43;;;;;;;6.90;3.17;;;;;;;30.24;42.94;99685.22;1768842;80;21533;-84
2022/06/27 06:16:11;;;;;;;6.75;2.95;;;;;;;30.06;42.86;99686.92;1766810;81;21022;-76
2022/06/27 06:18:38;;;;;;;3.22;3.02;;;;;;;29.82;43.50;99686.61;1754338;80;21157;-76
2022/06/27 06:21:07;;;;;;;3.40;2.75;;;;;;;29.72;43.80;99690.08;1753037;79;21068;-78
2022/06/27 06:23:36;;;;;;;3.20;2.75;;;;;;;29.61;43.95;99682.95;1753935;81;21082;-75
2022/06/27 06:26:05;;;;;;;3.22;2.95;;;;;;;29.62;44.43;99680.60;1760430;81;21082;-79
2022/06/27 06:28:32;;;;;;;3.52;2.75;;;;;;;29.62;44.32;99681.94;1761912;81;21119;-79
2022/06/27 06:31:01;;;;;;;5.67;3.10;;;;;;;29.59;44.02;99680.45;1736227;82;21700;-79
2022/06/27 06:33:31;;;;;;;4.65;3.02;;;;;;;29.60;44.26;99682.13;1731156;82;21003;-80
2022/06/27 06:35:59;;;;;;;11.08;3.12;;;;;;;29.53;44.37;99683.05;1750393;81;21552;-80
2022/06/27 06:38:26;;;;;;;6.55;3.10;;;;;;;29.45;44.99;99684.77;1750555;81;21065;-79
2022/06/27 06:40:54;;;;;;;3.52;3.20;;;;;;;29.41;44.24;99680.77;1759059;81;21498;-78
2022/06/27 06:43:21;;;;;;;2.83;2.60;;;;;;;29.25;44.34;99690.74;1760364;81;21179;-78
2022/06/27 06:45:49;;;;;;;5.17;2.62;;;;;;;29.09;44.46;99682.31;1750150;81;21470;-76
2022/06/27 06:48:22;;;;;;;3.35;2.83;;;;;;;28.97;45.32;99691.27;1760862;81;21084;-78
2022/06/27 06:50:49;;;;;;;4.17;2.65;;;;;;;28.86;45.55;99689.48;1770092;80;21494;-75
2022/06/27 06:53:16;;;;;;;3.70;3.02;;;;;;;28.76;46.11;99687.00;1770108;81;20943;-76
2022/06/27 06:55:44;;;;;;;12.40;3.12;;;;;;;28.73;46.23;99683.33;1769746;80;21105;-75
2022/06/27 06:58:10;;;;;;;3.55;2.70;;;;;;;28.61;45.79;99689.55;1745068;81;20986;-76
2022/06/27 07:00:39;;;;;;;5.47;2.70;;;;;;;28.51;46.20;99689.45;1739604;81;21029;-75
2022/06/27 07:03:07;;;;;;;3.80;2.70;;;;;;;28.41;45.97;99684.28;1769960;81;21533;-74
2022/06/27 07:05:35;;;;;;;7.10;3.12;;;;;;;28.33;46.51;99686.50;1744132;81;21010;-78
2022/06/27 07:08:02;;;;;;;11.65;3.27;;;;;;;28.31;46.34;99685.84;1728120;81;21131;-84
2022/06/27 07:10:30;;;;;;;5.15;2.60;;;;;;;28.27;46.30;99689.86;1745992;81;21589;-79
2022/06/27 07:12:57;;;;;;;3.80;2.37;;;;;;;28.29;46.72;99691.02;1744205;81;21071;-77
2022/06/27 07:15:24;;;;;;;2.75;2.55;;;;;;;28.29;45.58;99697.70;1752846;81;21128;-78
2022/06/27 07:17:52;;;;;;;5.70;2.92;;;;;;;28.29;45.65;99697.20;1750899;82;21518;-79
2022/06/27 07:20:19;;;;;;;4.55;2.60;;;;;;;28.26;45.69;99688.69;1759436;80;21225;-77
2022/06/27 07:22:48;;;;;;;3.20;2.30;;;;;;;28.26;46.25;99692.70;1756569;80;21062;-76
2022/06/27 07:25:15;;;;;;;3.00;2.47;;;;;;;28.30;45.60;99692.70;1759491;80;21679;-80
2022/06/27 07:27:43;;;;;;;2.52;2.20;;;;;;;28.33;45.24;99691.02;1777038;80;21005;-78
2022/06/27 07:30:13;;;;;;;2.83;2.15;;;;;;;28.34;44.79;99700.71;1757543;80;21022;-80
2022/06/27 07:32:41;;;;;;;3.15;2.85;;;;;;;28.30;44.85;99698.05;1737830;81;21128;-77
2022/06/27 07:35:13;;;;;;;4.05;2.42;;;;;;;28.28;44.78;99695.53;1736860;81;21609;-75
2022/06/27 07:37:47;;;;;;;2.22;2.12;;;;;;;28.34;44.79;99688.17;1730056;83;21526;-80
2022/06/27 07:40:11;;;;;;;2.58;2.25;;;;;;;28.44;44.48;99687.95;1726426;82;20975;-79
2022/06/27 07:42:38;;;;;;;4.65;2.90;;;;;;;28.53;44.67;99686.94;1764487;81;21453;-75
2022/06/27 07:45:08;;;;;;;2.87;2.25;;;;;;;28.63;44.06;99685.37;1757500;81;21790;-75
2022/06/27 07:47:35;;;;;;;4.78;2.37;;;;;;;28.78;44.09;99688.47;1767995;81;20967;-76
2022/06/27 07:50:03;;;;;;;2.47;2.30;;;;;;;28.91;42.81;99679.08;1766095;81;21006;-78
2022/06/27 07:53:11;;;;;;;4.35;2.47;;;;;;;28.95;41.31;99690.61;1769825;80;21002;-80
2022/06/27 07:55:00;;;;;;;2.80;2.00;;;;;;;28.99;41.00;99689.22;1766066;81;21073;-80
2022/06/27 07:57:27;;;;;;;2.67;2.00;;;;;;;29.06;39.49;99687.52;1768505;81;21214;-80
2022/06/27 07:59:56;;;;;;;1.90;1.80;;;;;;;29.15;39.50;99681.62;1768345;80;21078;-81
2022/06/27 08:02:24;;;;;;;2.15;1.95;;;;;;;29.28;40.27;99691.73;1746112;81;21089;-81
2022/06/27 08:04:51;;;;;;;3.42;2.10;;;;;;;29.42;40.01;99687.80;1762598;81;21105;-80
2022/06/27 08:07:19;;;;;;;3.58;1.70;;;;;;;29.51;39.77;99685.90;1769048;81;21446;-80
2022/06/27 08:09:46;;;;;;;5.15;2.02;;;;;;;29.55;39.15;99679.17;1770126;80;21871;-78
2022/06/27 08:12:14;;;;;;;2.98;2.12;;;;;;;29.58;40.12;99678.78;1770175;80;20951;-76
2022/06/27 08:14:41;;;;;;;1.87;1.62;;;;;;;29.64;39.49;99679.92;1770218;80;21050;-74
2022/06/27 08:17:08;;;;;;;2.08;1.90;;;;;;;29.68;39.09;99683.41;1769208;81;21034;-77
2022/06/27 08:19:36;;;;;;;3.27;1.70;;;;;;;29.66;37.76;99679.23;1769296;80;21054;-75
2022/06/27 08:22:04;;;;;;;2.33;1.72;;;;;;;29.64;37.16;99680.75;1757480;80;21131;-76
2022/06/27 08:24:32;;;;;;;2.90;1.85;;;;;;;29.58;37.40;99685.98;1755801;81;21501;-78
2022/06/27 08:26:59;;;;;;;2.22;1.75;;;;;;;29.54;37.77;99677.50;1756360;81;21541;-79
2022/06/27 08:29:28;;;;;;;1.70;1.60;;;;;;;29.58;37.81;99672.09;1770603;80;21136;-84
2022/06/27 08:31:55;;;;;;;2.58;1.60;;;;;;;29.63;36.71;99683.11;1769809;81;21414;-79
2022/06/27 08:34:23;;;;;;;1.75;1.65;;;;;;;29.63;36.87;99679.59;1765520;81;21107;-78
2022/06/27 08:36:51;;;;;;;5.30;1.95;;;;;;;29.67;37.38;99679.56;1739923;81;21051;-80
2022/06/27 08:39:18;;;;;;;3.92;1.80;;;;;;;29.71;37.56;99680.87;1752382;81;21067;-76
2022/06/27 08:41:46;;;;;;;2.45;1.80;;;;;;;29.73;36.97;99676.16;1753218;81;21011;-78
2022/06/27 08:44:13;;;;;;;4.65;2.05;;;;;;;29.78;36.85;99685.31;1770045;81;20919;-81
2022/06/27 08:46:41;;;;;;;6.00;2.35;;;;;;;29.82;36.26;99683.94;1741456;80;22178;-76
2022/06/27 08:49:11;;;;;;;1.92;1.82;;;;;;;29.85;36.79;99672.02;1748897;81;21008;-76
2022/06/27 08:51:40;;;;;;;3.00;2.08;;;;;;;29.93;36.68;99678.66;1727233;81;21583;-78
2022/06/27 08:54:08;;;;;;;2.22;1.77;;;;;;;29.95;36.18;99669.92;1767646;81;21032;-79
2022/06/27 08:56:35;;;;;;;3.50;1.62;;;;;;;30.00;36.50;99686.81;1748216;81;21303;-77
2022/06/27 08:59:02;;;;;;;3.08;1.98;;;;;;;29.97;36.19;99681.30;1760507;80;21598;-82
2022/06/27 09:01:30;;;;;;;3.72;2.10;;;;;;;29.98;36.45;99674.09;1748963;81;21049;-77
2022/06/27 09:04:06;;;;;;;2.60;1.87;;;;;;;30.12;36.36;99685.36;1752270;81;21059;-73
2022/06/27 09:06:48;;;;;;;1.98;1.82;;;;;;;30.15;35.74;99680.97;1736728;81;20998;-74
2022/06/27 09:09:16;;;;;;;1.77;1.67;;;;;;;30.10;35.46;99676.16;1737561;81;21500;-75
2022/06/27 09:11:46;;;;;;;2.10;1.87;;;;;;;30.07;35.33;99671.66;1743515;81;21505;-73
2022/06/27 09:14:36;;;;;;;2.12;2.00;;;;;;;30.02;35.71;99677.56;1747532;81;21033;-71
2022/06/27 09:17:09;;;;;;;3.83;1.70;;;;;;;30.04;36.34;99681.41;1767041;81;21070;-76
2022/06/27 09:19:54;;;;;;;5.33;2.12;;;;;;;29.99;35.48;99669.88;1738701;80;21351;-73
2022/06/27 09:22:28;;;;;;;4.12;1.80;;;;;;;29.83;35.74;99667.34;1739117;81;21058;-72
2022/06/27 09:25:20;;;;;;;5.40;2.55;;;;;;;29.77;36.85;99668.92;1757547;81;22255;-74
2022/06/27 09:27:47;;;;;;;2.30;2.05;;;;;;;29.88;36.56;99666.30;1756456;81;21024;-72
2022/06/27 09:30:23;;;;;;;6.10;2.15;;;;;;;30.06;35.70;99673.52;1752716;81;21958;-72
2022/06/27 09:32:59;;;;;;;3.52;1.98;;;;;;;30.14;35.29;99661.88;1745180;80;21035;-72
2022/06/27 09:35:35;;;;;;;2.77;1.72;;;;;;;30.24;35.39;99658.89;1718714;81;21069;-71
2022/06/27 09:38:07;;;;;;;1.72;1.62;;;;;;;30.20;34.67;99669.66;1770662;81;21227;-74
2022/06/27 09:40:35;;;;;;;2.58;2.00;;;;;;;30.07;35.39;99657.74;1784359;80;22773;-73
2022/06/27 09:43:03;;;;;;;4.20;2.05;;;;;;;30.06;35.45;99658.76;1779151;80;21010;-78
2022/06/27 09:45:31;;;;;;;4.12;2.30;;;;;;;30.18;35.77;99655.63;1778993;80;21072;-80
2022/06/27 09:48:04;;;;;;;2.00;1.90;;;;;;;30.33;35.72;99651.92;1756532;80;38436;-77
2022/06/27 09:50:35;;;;;;;2.20;1.80;;;;;;;30.42;35.76;99651.30;1748924;81;21265;-69
2022/06/27 09:53:02;;;;;;;5.67;2.00;;;;;;;30.43;35.00;99651.11;1747279;81;21005;-71
2022/06/27 09:55:29;;;;;;;3.72;1.98;;;;;;;30.41;35.64;99646.95;1739594;82;21035;-68
2022/06/27 09:57:56;;;;;;;2.10;1.90;;;;;;;30.40;35.06;99646.11;1739940;82;20992;-68
2022/06/27 10:00:23;;;;;;;3.67;2.05;;;;;;;30.39;35.35;99649.81;1750980;81;21495;-68
2022/06/27 10:02:51;;;;;;;3.27;1.92;;;;;;;30.38;35.50;99641.95;1767229;81;21150;-70
2022/06/27 10:05:19;;;;;;;3.02;2.40;;;;;;;30.37;34.81;99635.78;1770071;81;21050;-70
2022/06/27 10:08:00;;;;;;;2.37;2.20;;;;;;;30.35;35.61;99632.45;1761079;81;20957;-70
2022/06/27 10:10:32;;;;;;;3.37;2.30;;;;;;;30.42;35.83;99629.83;1752311;80;20980;-71
2022/06/27 10:13:01;;;;;;;5.70;2.22;;;;;;;30.48;35.38;99634.45;1728693;81;21042;-68
2022/06/27 10:15:33;;;;;;;2.95;2.75;;;;;;;30.57;35.17;99630.69;1759354;81;21215;-69
2022/06/27 10:18:02;;;;;;;2.25;2.15;;;;;;;30.66;34.18;99622.00;1760218;81;21018;-69
2022/06/27 10:20:37;;;;;;;3.10;1.87;;;;;;;30.72;33.95;99625.28;1765314;81;21050;-69
2022/06/27 10:23:17;;;;;;;3.27;2.12;;;;;;;30.79;34.22;99624.31;1770024;81;21003;-69
2022/06/27 10:25:48;;;;;;;2.20;2.00;;;;;;;30.87;34.22;99623.38;1754080;81;20943;-69
2022/06/27 10:28:17;;;;;;;2.22;2.02;;;;;;;30.91;34.21;99631.89;1770300;80;21147;-69
2022/06/27 10:30:57;;;;;;;4.53;1.80;;;;;;;30.83;34.00;99631.48;1762004;80;21042;-69
2022/06/27 10:33:30;;;;;;;3.95;2.60;;;;;;;30.69;34.59;99625.65;1742927;80;21077;-68
2022/06/27 10:36:02;;;;;;;3.20;2.20;;;;;;;30.54;34.89;99622.98;1729846;81;21043;-69
2022/06/27 10:38:36;;;;;;;5.40;2.15;;;;;;;30.45;35.42;99629.45;1750970;81;21038;-66
2022/06/27 10:41:04;;;;;;;3.58;1.98;;;;;;;30.39;35.04;99617.61;1733294;81;21248;-69
2022/06/27 10:43:47;;;;;;;2.55;2.35;;;;;;;30.30;35.29;99616.58;1768480;81;20990;-69
2022/06/27 10:46:19;;;;;;;2.77;2.58;;;;;;;30.25;35.51;99614.44;1770229;81;20999;-68
2022/06/27 10:48:57;;;;;;;2.10;1.90;;;;;;;30.23;35.68;99604.41;1757965;80;20963;-69
2022/06/27 10:51:27;;;;;;;2.55;2.22;;;;;;;30.25;36.12;99601.03;1728665;83;20943;-68
2022/06/27 10:54:09;;;;;;;2.95;1.98;;;;;;;30.35;36.24;99610.14;1728550;83;21120;-67
2022/06/27 10:56:46;;;;;;;2.58;2.12;;;;;;;30.46;36.42;99594.89;1747667;81;21517;-67
2022/06/27 10:59:18;;;;;;;2.20;2.00;;;;;;;30.59;36.38;99603.63;1752402;81;21067;-68
2022/06/27 11:02:07;;;;;;;2.10;1.90;;;;;;;30.57;35.49;99611.90;1731963;81;21470;-69
2022/06/27 11:04:37;;;;;;;2.37;2.05;;;;;;;30.45;35.55;99609.33;1660678;84;20993;-67
2022/06/27 11:07:07;;;;;;;2.25;1.95;;;;;;;30.38;35.27;99613.77;1713871;83;21151;-69
2022/06/27 11:09:40;;;;;;;4.75;2.40;;;;;;;30.37;35.42;99596.03;1713975;83;20964;-68
2022/06/27 11:12:08;;;;;;;3.33;2.00;;;;;;;30.43;35.45;99596.60;1713075;82;20974;-68
2022/06/27 11:14:51;;;;;;;2.92;2.10;;;;;;;30.53;36.11;99588.27;1716627;82;21017;-66
2022/06/27 11:17:33;;;;;;;2.83;1.87;;;;;;;30.64;35.85;99586.45;1724938;82;21506;-70
2022/06/27 11:20:25;;;;;;;2.98;2.10;;;;;;;30.68;35.95;99590.42;1743254;81;21082;-69
2022/06/27 11:22:59;;;;;;;5.35;2.55;;;;;;;30.70;35.23;99598.61;1692874;83;21070;-70
2022/06/27 11:25:28;;;;;;;2.75;2.10;;;;;;;30.63;35.00;99593.67;1669690;83;21163;-69
2022/06/27 11:32:14;;;;;;;4.00;2.10;;;;;;;30.58;35.34;99593.91;1715852;82;21427;-68
2022/06/27 11:34:50;;;;;;;3.60;2.15;;;;;;;30.66;35.78;99591.13;1781912;80;21270;-70
2022/06/27 11:37:20;;;;;;;3.40;2.17;;;;;;;30.80;35.73;99576.80;1782364;80;21081;-67
2022/06/27 11:40:01;;;;;;;6.85;2.33;;;;;;;30.94;35.59;99581.82;1752172;80;21085;-70
2022/06/27 11:42:31;;;;;;;2.30;2.10;;;;;;;31.01;35.79;99598.81;1782451;80;21062;-71
2022/06/27 11:45:13;;;;;;;2.55;1.82;;;;;;;30.91;34.59;99587.57;1772490;80;21034;-70
2022/06/27 11:47:45;;;;;;;2.25;2.05;;;;;;;30.75;34.30;99583.28;1745951;81;21210;-73
2022/06/27 11:50:18;;;;;;;3.15;2.10;;;;;;;30.68;33.38;99581.03;1745691;81;21443;-69